sensor_id;sensor_type;location;lat;lon;timestamp;pressure;altitude;pressure_sealevel;temperature;humidity
71716;BME280;59568;52.128;5.434;2022-07-21T00:02:01;101865.06;;;21.30;65.44
71716;BME280;59568;52.128;5.434;2022-07-21T00:04:28;101881.66;;;21.27;65.45
71716;BME280;59568;52.128;5.434;2022-07-21T00:06:54;101877.78;;;21.24;65.52
71716;BME280;59568;52.128;5.434;2022-07-21T00:09:21;101881.56;;;21.23;65.99
71716;BME280;59568;52.128;5.434;2022-07-21T00:11:48;101873.16;;;21.21;67.94
71716;BME280;59568;52.128;5.434;2022-07-21T00:14:15;101874.50;;;21.15;65.80
71716;BME280;59568;52.128;5.434;2022-07-21T00:16:42;101869.06;;;21.11;66.66
71716;BME280;59568;52.128;5.434;2022-07-21T00:19:09;101873.16;;;21.09;65.84
71716;BME280;59568;52.128;5.434;2022-07-21T00:21:37;101868.16;;;21.07;67.22
71716;BME280;59568;52.128;5.434;2022-07-21T00:24:04;101860.53;;;21.06;67.01
71716;BME280;59568;52.128;5.434;2022-07-21T00:26:31;101868.38;;;21.02;67.49
71716;BME280;59568;52.128;5.434;2022-07-21T00:28:58;101871.72;;;20.99;66.28
71716;BME280;59568;52.128;5.434;2022-07-21T00:31:25;101873.56;;;20.99;66.71
71716;BME280;59568;52.128;5.434;2022-07-21T00:33:52;101876.47;;;20.93;66.25
71716;BME280;59568;52.128;5.434;2022-07-21T00:36:20;101871.03;;;20.90;66.88
71716;BME280;59568;52.128;5.434;2022-07-21T00:38:47;101875.91;;;20.88;66.85
71716;BME280;59568;52.128;5.434;2022-07-21T00:41:14;101875.91;;;20.88;66.31
71716;BME280;59568;52.128;5.434;2022-07-21T00:43:41;101869.38;;;20.85;66.34
71716;BME280;59568;52.128;5.434;2022-07-21T00:46:07;101868.94;;;20.83;67.09
71716;BME280;59568;52.128;5.434;2022-07-21T00:48:34;101870.38;;;20.81;68.82
71716;BME280;59568;52.128;5.434;2022-07-21T00:51:01;101870.13;;;20.73;67.13
71716;BME280;59568;52.128;5.434;2022-07-21T00:53:28;101870.44;;;20.72;68.17
71716;BME280;59568;52.128;5.434;2022-07-21T00:55:55;101859.25;;;20.66;67.02
71716;BME280;59568;52.128;5.434;2022-07-21T00:58:22;101855.38;;;20.64;66.81
71716;BME280;59568;52.128;5.434;2022-07-21T01:00:50;101859.16;;;20.63;66.87
71716;BME280;59568;52.128;5.434;2022-07-21T01:03:17;101852.13;;;20.58;67.44
71716;BME280;59568;52.128;5.434;2022-07-21T01:05:44;101845.91;;;20.54;68.35
71716;BME280;59568;52.128;5.434;2022-07-21T01:08:11;101847.34;;;20.51;68.48
71716;BME280;59568;52.128;5.434;2022-07-21T01:10:39;101848.81;;;20.49;67.82
71716;BME280;59568;52.128;5.434;2022-07-21T01:13:06;101845.69;;;20.47;67.30
71716;BME280;59568;52.128;5.434;2022-07-21T01:15:33;101844.81;;;20.43;68.60
71716;BME280;59568;52.128;5.434;2022-07-21T01:18:01;101840.13;;;20.40;68.35
71716;BME280;59568;52.128;5.434;2022-07-21T01:20:32;101839.69;;;20.38;69.08
71716;BME280;59568;52.128;5.434;2022-07-21T01:22:59;101840.34;;;20.34;67.67
71716;BME280;59568;52.128;5.434;2022-07-21T01:25:26;101847.53;;;20.34;67.50
71716;BME280;59568;52.128;5.434;2022-07-21T01:27:53;101828.84;;;20.30;67.81
71716;BME280;59568;52.128;5.434;2022-07-21T01:30:20;101829.47;;;20.27;68.41
71716;BME280;59568;52.128;5.434;2022-07-21T01:32:47;101821.84;;;20.26;67.84
71716;BME280;59568;52.128;5.434;2022-07-21T01:35:14;101821.75;;;20.22;68.38
71716;BME280;59568;52.128;5.434;2022-07-21T01:37:44;101821.16;;;20.17;67.98
71716;BME280;59568;52.128;5.434;2022-07-21T01:40:12;101822.25;;;20.15;68.79
71716;BME280;59568;52.128;5.434;2022-07-21T01:42:58;101834.94;;;20.10;69.54
71716;BME280;59568;52.128;5.434;2022-07-21T01:45:25;101832.50;;;20.05;68.89
71716;BME280;59568;52.128;5.434;2022-07-21T01:47:52;101832.06;;;20.03;68.27
71716;BME280;59568;52.128;5.434;2022-07-21T01:50:19;101835.78;;;20.02;68.20
71716;BME280;59568;52.128;5.434;2022-07-21T01:52:47;101839.25;;;20.02;68.96
71716;BME280;59568;52.128;5.434;2022-07-21T01:55:14;101837.66;;;20.01;69.22
71716;BME280;59568;52.128;5.434;2022-07-21T01:57:41;101837.09;;;19.95;69.41
71716;BME280;59568;52.128;5.434;2022-07-21T02:00:08;101837.75;;;19.92;68.80
71716;BME280;59568;52.128;5.434;2022-07-21T02:02:35;101841.50;;;19.91;68.86
71716;BME280;59568;52.128;5.434;2022-07-21T02:05:02;101833.75;;;19.86;69.45
71716;BME280;59568;52.128;5.434;2022-07-21T02:07:29;101837.34;;;19.82;69.33
71716;BME280;59568;52.128;5.434;2022-07-21T02:09:55;101841.88;;;19.81;68.89
71716;BME280;59568;52.128;5.434;2022-07-21T02:12:22;101838.31;;;19.77;69.32
71716;BME280;59568;52.128;5.434;2022-07-21T02:14:50;101836.00;;;19.75;68.91
71716;BME280;59568;52.128;5.434;2022-07-21T02:17:16;101824.16;;;19.73;68.90
71716;BME280;59568;52.128;5.434;2022-07-21T02:19:43;101824.16;;;19.73;69.33
71716;BME280;59568;52.128;5.434;2022-07-21T02:22:10;101824.78;;;19.70;69.76
71716;BME280;59568;52.128;5.434;2022-07-21T02:24:37;101814.81;;;19.67;69.18
71716;BME280;59568;52.128;5.434;2022-07-21T02:27:06;101811.72;;;19.65;69.53
71716;BME280;59568;52.128;5.434;2022-07-21T02:29:33;101813.16;;;19.62;69.65
71716;BME280;59568;52.128;5.434;2022-07-21T02:32:02;101804.41;;;19.62;69.48
71716;BME280;59568;52.128;5.434;2022-07-21T02:34:29;101806.59;;;19.60;70.72
71716;BME280;59568;52.128;5.434;2022-07-21T02:36:56;101807.56;;;19.55;70.76
71716;BME280;59568;52.128;5.434;2022-07-21T02:39:22;101815.06;;;19.53;70.05
71716;BME280;59568;52.128;5.434;2022-07-21T02:41:49;101818.50;;;19.53;71.57
71716;BME280;59568;52.128;5.434;2022-07-21T02:44:16;101807.44;;;19.51;70.40
71716;BME280;59568;52.128;5.434;2022-07-21T02:46:42;101803.88;;;19.47;70.51
71716;BME280;59568;52.128;5.434;2022-07-21T02:49:09;101798.13;;;19.45;69.57
71716;BME280;59568;52.128;5.434;2022-07-21T02:51:37;101803.41;;;19.45;70.02
71716;BME280;59568;52.128;5.434;2022-07-21T02:54:03;101800.31;;;19.43;71.06
71716;BME280;59568;52.128;5.434;2022-07-21T02:56:30;101797.22;;;19.41;70.81
71716;BME280;59568;52.128;5.434;2022-07-21T02:58:57;101802.81;;;19.40;71.46
71716;BME280;59568;52.128;5.434;2022-07-21T03:01:24;101798.19;;;19.36;70.73
71716;BME280;59568;52.128;5.434;2022-07-21T03:03:51;101795.84;;;19.35;70.43
71716;BME280;59568;52.128;5.434;2022-07-21T03:06:18;101787.00;;;19.31;71.23
71716;BME280;59568;52.128;5.434;2022-07-21T03:08:44;101780.47;;;19.28;71.12
71716;BME280;59568;52.128;5.434;2022-07-21T03:11:11;101781.56;;;19.27;71.61
71716;BME280;59568;52.128;5.434;2022-07-21T03:13:38;101782.97;;;19.25;70.85
71716;BME280;59568;52.128;5.434;2022-07-21T03:16:05;101797.00;;;19.25;71.45
71716;BME280;59568;52.128;5.434;2022-07-21T03:18:32;101794.22;;;19.22;71.38
71716;BME280;59568;52.128;5.434;2022-07-21T03:20:58;101795.31;;;19.21;71.11
71716;BME280;59568;52.128;5.434;2022-07-21T03:23:25;101800.00;;;19.15;71.34
71716;BME280;59568;52.128;5.434;2022-07-21T03:25:52;101808.28;;;19.13;71.33
71716;BME280;59568;52.128;5.434;2022-07-21T03:28:19;101802.22;;;19.13;71.28
71716;BME280;59568;52.128;5.434;2022-07-21T03:30:46;101793.03;;;19.10;71.18
71716;BME280;59568;52.128;5.434;2022-07-21T03:33:13;101802.84;;;19.10;72.08
71716;BME280;59568;52.128;5.434;2022-07-21T03:35:40;101800.06;;;19.06;71.57
71716;BME280;59568;52.128;5.434;2022-07-21T03:38:08;101795.84;;;19.05;71.91
71716;BME280;59568;52.128;5.434;2022-07-21T03:40:36;101795.09;;;19.05;71.25
71716;BME280;59568;52.128;5.434;2022-07-21T03:43:05;101806.78;;;19.04;71.88
71716;BME280;59568;52.128;5.434;2022-07-21T03:45:33;101817.25;;;19.00;71.95
71716;BME280;59568;52.128;5.434;2022-07-21T03:48:03;101813.03;;;18.99;72.90
71716;BME280;59568;52.128;5.434;2022-07-21T03:50:30;101821.44;;;19.01;72.61
71716;BME280;59568;52.128;5.434;2022-07-21T03:52:58;101819.22;;;19.03;73.00
71716;BME280;59568;52.128;5.434;2022-07-21T03:55:25;101809.91;;;19.06;73.10
71716;BME280;59568;52.128;5.434;2022-07-21T03:57:55;101808.00;;;19.06;72.04
71716;BME280;59568;52.128;5.434;2022-07-21T04:00:34;101808.47;;;19.08;72.82
71716;BME280;59568;52.128;5.434;2022-07-21T04:03:01;101807.34;;;19.09;74.26
71716;BME280;59568;52.128;5.434;2022-07-21T04:05:29;101805.06;;;19.08;72.95
71716;BME280;59568;52.128;5.434;2022-07-21T04:07:56;101818.59;;;19.06;73.68
71716;BME280;59568;52.128;5.434;2022-07-21T04:10:29;101820.16;;;19.07;74.35
71716;BME280;59568;52.128;5.434;2022-07-21T04:12:58;101810.34;;;19.08;73.36
71716;BME280;59568;52.128;5.434;2022-07-21T04:15:26;101806.59;;;19.09;75.65
71716;BME280;59568;52.128;5.434;2022-07-21T04:17:53;101796.19;;;19.04;74.67
71716;BME280;59568;52.128;5.434;2022-07-21T04:20:20;101805.38;;;19.06;75.41
71716;BME280;59568;52.128;5.434;2022-07-21T04:22:48;101811.13;;;19.08;73.75
71716;BME280;59568;52.128;5.434;2022-07-21T04:25:17;101805.16;;;19.11;75.64
71716;BME280;59568;52.128;5.434;2022-07-21T04:27:45;101811.25;;;19.12;75.65
71716;BME280;59568;52.128;5.434;2022-07-21T04:30:15;101809.25;;;19.09;75.74
71716;BME280;59568;52.128;5.434;2022-07-21T04:32:42;101807.34;;;19.09;74.69
71716;BME280;59568;52.128;5.434;2022-07-21T04:35:09;101798.03;;;19.12;73.73
71716;BME280;59568;52.128;5.434;2022-07-21T04:37:36;101806.72;;;19.12;74.99
71716;BME280;59568;52.128;5.434;2022-07-21T04:40:05;101799.25;;;19.14;74.23
71716;BME280;59568;52.128;5.434;2022-07-21T04:42:32;101803.91;;;19.18;75.68
71716;BME280;59568;52.128;5.434;2022-07-21T04:45:01;101807.66;;;19.16;76.47
71716;BME280;59568;52.128;5.434;2022-07-21T04:47:28;101802.34;;;19.16;75.70
71716;BME280;59568;52.128;5.434;2022-07-21T04:49:55;101812.19;;;19.16;75.75
71716;BME280;59568;52.128;5.434;2022-07-21T04:52:22;101811.72;;;19.14;73.92
71716;BME280;59568;52.128;5.434;2022-07-21T04:54:49;101810.59;;;19.15;73.88
71716;BME280;59568;52.128;5.434;2022-07-21T04:57:16;101807.19;;;19.14;73.97
71716;BME280;59568;52.128;5.434;2022-07-21T04:59:42;101798.13;;;19.15;73.18
71716;BME280;59568;52.128;5.434;2022-07-21T05:02:09;101801.44;;;19.12;75.32
71716;BME280;59568;52.128;5.434;2022-07-21T05:04:36;101802.97;;;19.13;75.55
71716;BME280;59568;52.128;5.434;2022-07-21T05:07:03;101805.63;;;19.13;73.86
71716;BME280;59568;52.128;5.434;2022-07-21T05:09:30;101803.78;;;19.14;74.82
71716;BME280;59568;52.128;5.434;2022-07-21T05:11:56;101805.63;;;19.13;73.98
71716;BME280;59568;52.128;5.434;2022-07-21T05:14:23;101807.66;;;19.16;75.05
71716;BME280;59568;52.128;5.434;2022-07-21T05:16:50;101806.09;;;19.15;74.69
71716;BME280;59568;52.128;5.434;2022-07-21T05:19:16;101805.00;;;19.16;74.44
71716;BME280;59568;52.128;5.434;2022-07-21T05:21:43;101806.56;;;19.18;75.44
71716;BME280;59568;52.128;5.434;2022-07-21T05:24:11;101808.41;;;19.17;75.26
71716;BME280;59568;52.128;5.434;2022-07-21T05:26:38;101801.72;;;19.20;75.86
71716;BME280;59568;52.128;5.434;2022-07-21T05:29:05;101801.06;;;19.23;75.42
71716;BME280;59568;52.128;5.434;2022-07-21T05:31:31;101796.53;;;19.23;74.34
71716;BME280;59568;52.128;5.434;2022-07-21T05:33:58;101798.72;;;19.21;77.42
71716;BME280;59568;52.128;5.434;2022-07-21T05:36:25;101790.66;;;19.18;75.67
71716;BME280;59568;52.128;5.434;2022-07-21T05:38:51;101791.13;;;19.20;74.77
71716;BME280;59568;52.128;5.434;2022-07-21T05:41:19;101788.28;;;19.25;77.47
71716;BME280;59568;52.128;5.434;2022-07-21T05:43:48;101798.34;;;19.31;77.79
71716;BME280;59568;52.128;5.434;2022-07-21T05:46:15;101793.06;;;19.31;76.49
71716;BME280;59568;52.128;5.434;2022-07-21T05:48:42;101789.56;;;19.40;76.33
71716;BME280;59568;52.128;5.434;2022-07-21T05:51:09;101783.91;;;19.50;75.58
71716;BME280;59568;52.128;5.434;2022-07-21T05:53:43;101794.63;;;19.53;75.71
71716;BME280;59568;52.128;5.434;2022-07-21T05:56:09;101789.47;;;19.57;77.30
71716;BME280;59568;52.128;5.434;2022-07-21T05:58:36;101793.34;;;19.60;76.36
71716;BME280;59568;52.128;5.434;2022-07-21T06:01:03;101789.59;;;19.61;75.73
71716;BME280;59568;52.128;5.434;2022-07-21T06:03:37;101786.75;;;19.66;77.25
71716;BME280;59568;52.128;5.434;2022-07-21T06:06:04;101779.44;;;19.63;75.75
71716;BME280;59568;52.128;5.434;2022-07-21T06:08:32;101786.75;;;19.66;74.22
71716;BME280;59568;52.128;5.434;2022-07-21T06:10:59;101793.59;;;19.67;75.64
71716;BME280;59568;52.128;5.434;2022-07-21T06:13:26;101783.00;;;19.67;77.57
71716;BME280;59568;52.128;5.434;2022-07-21T06:15:53;101785.19;;;19.65;75.50
71716;BME280;59568;52.128;5.434;2022-07-21T06:18:20;101782.38;;;19.70;75.69
71716;BME280;59568;52.128;5.434;2022-07-21T06:20:49;101772.53;;;19.70;75.13
71716;BME280;59568;52.128;5.434;2022-07-21T06:23:16;101769.59;;;19.72;76.13
71716;BME280;59568;52.128;5.434;2022-07-21T06:25:43;101765.50;;;19.74;75.73
71716;BME280;59568;52.128;5.434;2022-07-21T06:28:10;101764.53;;;19.79;75.40
71716;BME280;59568;52.128;5.434;2022-07-21T06:30:36;101764.13;;;19.89;74.84
71716;BME280;59568;52.128;5.434;2022-07-21T06:33:03;101763.81;;;19.91;76.07
71716;BME280;59568;52.128;5.434;2022-07-21T06:35:30;101757.47;;;19.83;74.73
71716;BME280;59568;52.128;5.434;2022-07-21T06:37:57;101760.56;;;19.85;74.87
71716;BME280;59568;52.128;5.434;2022-07-21T06:40:24;101756.81;;;19.86;74.71
71716;BME280;59568;52.128;5.434;2022-07-21T06:42:50;101759.81;;;19.85;75.22
71716;BME280;59568;52.128;5.434;2022-07-21T06:45:37;101762.44;;;19.85;74.95
71716;BME280;59568;52.128;5.434;2022-07-21T06:48:06;101768.34;;;19.90;74.69
71716;BME280;59568;52.128;5.434;2022-07-21T06:50:33;101769.69;;;19.97;75.00
71716;BME280;59568;52.128;5.434;2022-07-21T06:53:01;101782.31;;;20.12;74.57
71716;BME280;59568;52.128;5.434;2022-07-21T06:55:28;101776.84;;;20.29;73.83
71716;BME280;59568;52.128;5.434;2022-07-21T06:57:55;101774.88;;;20.39;74.82
71716;BME280;59568;52.128;5.434;2022-07-21T07:00:22;101784.97;;;20.45;74.09
71716;BME280;59568;52.128;5.434;2022-07-21T07:02:49;101771.56;;;20.54;74.31
71716;BME280;59568;52.128;5.434;2022-07-21T07:05:16;101781.16;;;20.67;73.36
71716;BME280;59568;52.128;5.434;2022-07-21T07:07:43;101783.91;;;20.71;73.95
71716;BME280;59568;52.128;5.434;2022-07-21T07:10:10;101782.91;;;20.75;73.56
71716;BME280;59568;52.128;5.434;2022-07-21T07:12:37;101786.00;;;20.78;73.11
71716;BME280;59568;52.128;5.434;2022-07-21T07:15:24;101791.13;;;20.83;75.05
71716;BME280;59568;52.128;5.434;2022-07-21T07:17:52;101796.75;;;20.81;73.60
71716;BME280;59568;52.128;5.434;2022-07-21T07:20:19;101805.38;;;20.78;73.27
71716;BME280;59568;52.128;5.434;2022-07-21T07:22:47;101801.50;;;20.75;72.13
71716;BME280;59568;52.128;5.434;2022-07-21T07:25:14;101803.84;;;20.77;74.18
71716;BME280;59568;52.128;5.434;2022-07-21T07:27:51;101807.25;;;20.78;73.49
71716;BME280;59568;52.128;5.434;2022-07-21T07:30:18;101812.13;;;20.75;73.44
71716;BME280;59568;52.128;5.434;2022-07-21T07:32:45;101813.91;;;20.71;74.61
71716;BME280;59568;52.128;5.434;2022-07-21T07:35:16;101816.84;;;20.58;75.18
71716;BME280;59568;52.128;5.434;2022-07-21T07:37:45;101815.28;;;20.57;73.20
71716;BME280;59568;52.128;5.434;2022-07-21T07:40:16;101815.63;;;20.55;74.11
71716;BME280;59568;52.128;5.434;2022-07-21T07:42:43;101824.69;;;20.54;72.71
71716;BME280;59568;52.128;5.434;2022-07-21T07:45:11;101821.56;;;20.52;72.82
71716;BME280;59568;52.128;5.434;2022-07-21T07:47:40;101821.13;;;20.50;73.49
71716;BME280;59568;52.128;5.434;2022-07-21T07:50:08;101815.25;;;20.44;73.82
71716;BME280;59568;52.128;5.434;2022-07-21T07:52:36;101825.53;;;20.46;71.79
71716;BME280;59568;52.128;5.434;2022-07-21T07:55:04;101825.22;;;20.47;72.21
71716;BME280;59568;52.128;5.434;2022-07-21T07:57:34;101824.34;;;20.43;73.40
71716;BME280;59568;52.128;5.434;2022-07-21T08:00:04;101823.00;;;20.37;72.86
71716;BME280;59568;52.128;5.434;2022-07-21T08:02:52;101823.19;;;20.32;75.23
71716;BME280;59568;52.128;5.434;2022-07-21T08:05:19;101830.47;;;20.23;74.27
71716;BME280;59568;52.128;5.434;2022-07-21T08:07:46;101828.00;;;20.18;74.63
71716;BME280;59568;52.128;5.434;2022-07-21T08:10:13;101826.34;;;20.13;73.41
71716;BME280;59568;52.128;5.434;2022-07-21T08:13:00;101839.16;;;20.11;73.73
71716;BME280;59568;52.128;5.434;2022-07-21T08:15:32;101828.53;;;20.11;75.49
71716;BME280;59568;52.128;5.434;2022-07-21T08:17:59;101832.50;;;20.05;74.85
71716;BME280;59568;52.128;5.434;2022-07-21T08:20:26;101829.59;;;19.98;75.43
71716;BME280;59568;52.128;5.434;2022-07-21T08:22:53;101826.69;;;19.90;73.75
71716;BME280;59568;52.128;5.434;2022-07-21T08:25:20;101814.50;;;19.89;74.13
71716;BME280;59568;52.128;5.434;2022-07-21T08:27:47;101816.59;;;19.84;73.91
71716;BME280;59568;52.128;5.434;2022-07-21T08:30:14;101816.13;;;19.82;75.29
71716;BME280;59568;52.128;5.434;2022-07-21T08:32:41;101813.81;;;19.80;75.29
71716;BME280;59568;52.128;5.434;2022-07-21T08:35:08;101814.47;;;19.77;75.47
71716;BME280;59568;52.128;5.434;2022-07-21T08:37:36;101812.91;;;19.76;75.26
71716;BME280;59568;52.128;5.434;2022-07-21T08:40:05;101808.25;;;19.73;76.30
71716;BME280;59568;52.128;5.434;2022-07-21T08:42:32;101809.38;;;19.72;76.37
71716;BME280;59568;52.128;5.434;2022-07-21T08:44:59;101817.16;;;19.68;75.16
71716;BME280;59568;52.128;5.434;2022-07-21T08:47:26;101813.72;;;19.68;75.85
71716;BME280;59568;52.128;5.434;2022-07-21T08:49:53;101817.78;;;19.65;76.01
71716;BME280;59568;52.128;5.434;2022-07-21T08:52:21;101815.47;;;19.64;75.75
71716;BME280;59568;52.128;5.434;2022-07-21T08:54:47;101810.28;;;19.67;76.90
71716;BME280;59568;52.128;5.434;2022-07-21T08:57:15;101816.84;;;19.70;76.52
71716;BME280;59568;52.128;5.434;2022-07-21T08:59:43;101812.31;;;19.70;75.85
71716;BME280;59568;52.128;5.434;2022-07-21T09:02:27;101815.75;;;19.71;75.05
71716;BME280;59568;52.128;5.434;2022-07-21T09:04:55;101813.09;;;19.71;75.46
71716;BME280;59568;52.128;5.434;2022-07-21T09:07:22;101814.81;;;19.67;76.24
71716;BME280;59568;52.128;5.434;2022-07-21T09:09:57;101820.75;;;19.64;77.17
71716;BME280;59568;52.128;5.434;2022-07-21T09:12:25;101818.56;;;19.66;77.29
71716;BME280;59568;52.128;5.434;2022-07-21T09:15:17;101826.84;;;19.64;76.57
71716;BME280;59568;52.128;5.434;2022-07-21T09:17:42;101827.34;;;19.58;77.92
71716;BME280;59568;52.128;5.434;2022-07-21T09:20:29;101830.22;;;19.52;76.81
71716;BME280;59568;52.128;5.434;2022-07-21T09:23:14;101835.66;;;19.56;75.91
71716;BME280;59568;52.128;5.434;2022-07-21T09:25:49;101832.47;;;19.63;77.75
71716;BME280;59568;52.128;5.434;2022-07-21T09:28:21;101841.97;;;19.64;77.00
71716;BME280;59568;52.128;5.434;2022-07-21T09:36:05;101841.47;;;19.70;77.32
71716;BME280;59568;52.128;5.434;2022-07-21T09:38:35;101844.59;;;19.72;78.57
71716;BME280;59568;52.128;5.434;2022-07-21T09:41:18;101850.84;;;19.68;77.69
71716;BME280;59568;52.128;5.434;2022-07-21T09:46:19;101851.94;;;19.67;78.15
71716;BME280;59568;52.128;5.434;2022-07-21T09:48:48;101850.38;;;19.66;78.08
71716;BME280;59568;52.128;5.434;2022-07-21T09:51:37;101854.00;;;19.61;78.37
71716;BME280;59568;52.128;5.434;2022-07-21T09:54:11;101851.66;;;19.60;78.66
71716;BME280;59568;52.128;5.434;2022-07-21T09:56:42;101862.94;;;19.56;79.19
71716;BME280;59568;52.128;5.434;2022-07-21T09:59:11;101866.88;;;19.50;79.59
71716;BME280;59568;52.128;5.434;2022-07-21T10:01:38;101863.31;;;19.46;80.26
71716;BME280;59568;52.128;5.434;2022-07-21T10:04:05;101870.34;;;19.42;80.41
71716;BME280;59568;52.128;5.434;2022-07-21T10:06:35;101873.00;;;19.42;80.04
71716;BME280;59568;52.128;5.434;2022-07-21T10:09:04;101871.44;;;19.41;80.12
71716;BME280;59568;52.128;5.434;2022-07-21T10:11:31;101868.91;;;19.45;81.32
71716;BME280;59568;52.128;5.434;2022-07-21T10:13:58;101876.88;;;19.45;80.93
71716;BME280;59568;52.128;5.434;2022-07-21T10:16:25;101877.50;;;19.42;81.41
71716;BME280;59568;52.128;5.434;2022-07-21T10:19:00;101884.22;;;19.39;81.42
71716;BME280;59568;52.128;5.434;2022-07-21T10:24:17;101882.59;;;19.26;81.93
71716;BME280;59568;52.128;5.434;2022-07-21T10:27:14;101884.94;;;19.19;80.61
71716;BME280;59568;52.128;5.434;2022-07-21T10:32:19;101898.28;;;19.31;80.76
71716;BME280;59568;52.128;5.434;2022-07-21T10:34:46;101890.94;;;19.36;80.79
71716;BME280;59568;52.128;5.434;2022-07-21T10:45:39;101897.31;;;19.35;80.42
71716;BME280;59568;52.128;5.434;2022-07-21T10:48:08;101895.47;;;19.36;80.70
71716;BME280;59568;52.128;5.434;2022-07-21T10:50:37;101898.59;;;19.38;79.69
71716;BME280;59568;52.128;5.434;2022-07-21T10:53:06;101899.97;;;19.44;81.11
71716;BME280;59568;52.128;5.434;2022-07-21T10:55:38;101899.75;;;19.49;79.33
71716;BME280;59568;52.128;5.434;2022-07-21T10:58:15;101904.69;;;19.60;79.45
71716;BME280;59568;52.128;5.434;2022-07-21T11:00:55;101898.09;;;19.66;80.42
71716;BME280;59568;52.128;5.434;2022-07-21T11:03:29;101893.88;;;19.73;80.31
71716;BME280;59568;52.128;5.434;2022-07-21T11:08:45;101901.81;;;19.82;79.36
71716;BME280;59568;52.128;5.434;2022-07-21T11:11:23;101903.34;;;19.83;79.60
71716;BME280;59568;52.128;5.434;2022-07-21T11:14:16;101910.06;;;19.81;78.32
71716;BME280;59568;52.128;5.434;2022-07-21T11:22:17;101902.44;;;19.79;78.73
71716;BME280;59568;52.128;5.434;2022-07-21T11:24:48;101909.31;;;19.80;79.32
71716;BME280;59568;52.128;5.434;2022-07-21T11:27:19;101917.28;;;19.71;79.02
71716;BME280;59568;52.128;5.434;2022-07-21T11:29:51;101916.53;;;19.71;79.45
71716;BME280;59568;52.128;5.434;2022-07-21T11:32:19;101915.91;;;19.74;79.48
71716;BME280;59568;52.128;5.434;2022-07-21T11:34:49;101917.38;;;19.84;78.52
71716;BME280;59568;52.128;5.434;2022-07-21T11:37:30;101912.66;;;19.89;78.82
71716;BME280;59568;52.128;5.434;2022-07-21T11:40:10;101910.59;;;19.95;77.54
71716;BME280;59568;52.128;5.434;2022-07-21T11:42:42;101913.88;;;19.92;77.86
71716;BME280;59568;52.128;5.434;2022-07-21T11:45:10;101908.66;;;19.83;77.49
71716;BME280;59568;52.128;5.434;2022-07-21T11:47:37;101913.03;;;19.79;78.46
71716;BME280;59568;52.128;5.434;2022-07-21T11:50:10;101909.16;;;19.77;77.82
71716;BME280;59568;52.128;5.434;2022-07-21T11:52:39;101904.78;;;19.81;77.76
71716;BME280;59568;52.128;5.434;2022-07-21T11:55:10;101914.59;;;19.80;78.43
71716;BME280;59568;52.128;5.434;2022-07-21T11:57:43;101910.97;;;19.85;77.89
71716;BME280;59568;52.128;5.434;2022-07-21T12:00:11;101908.00;;;19.86;77.61
71716;BME280;59568;52.128;5.434;2022-07-21T12:02:39;101917.19;;;19.89;78.09
71716;BME280;59568;52.128;5.434;2022-07-21T12:05:07;101908.91;;;19.90;77.05
71716;BME280;59568;52.128;5.434;2022-07-21T12:10:07;101918.88;;;19.93;78.14
71716;BME280;59568;52.128;5.434;2022-07-21T12:12:37;101912.34;;;19.91;78.24
71716;BME280;59568;52.128;5.434;2022-07-21T12:15:23;101921.22;;;19.95;77.08
71716;BME280;59568;52.128;5.434;2022-07-21T12:17:56;101917.34;;;19.92;76.99
71716;BME280;59568;52.128;5.434;2022-07-21T12:20:31;101922.94;;;19.91;76.30
71716;BME280;59568;52.128;5.434;2022-07-21T12:23:03;101923.28;;;19.89;76.63
71716;BME280;59568;52.128;5.434;2022-07-21T12:25:43;101927.16;;;19.92;76.60
71716;BME280;59568;52.128;5.434;2022-07-21T12:28:10;101922.63;;;19.92;77.33
71716;BME280;59568;52.128;5.434;2022-07-21T12:30:37;101917.34;;;19.92;76.56
71716;BME280;59568;52.128;5.434;2022-07-21T12:33:15;101921.72;;;19.88;76.83
71716;BME280;59568;52.128;5.434;2022-07-21T12:35:44;101919.72;;;19.85;76.89
71716;BME280;59568;52.128;5.434;2022-07-21T12:38:14;101918.28;;;19.88;77.31
71716;BME280;59568;52.128;5.434;2022-07-21T12:40:44;101918.09;;;19.93;77.72
71716;BME280;59568;52.128;5.434;2022-07-21T12:43:31;101930.00;;;20.08;76.02
71716;BME280;59568;52.128;5.434;2022-07-21T12:46:08;101927.03;;;20.09;75.79
71716;BME280;59568;52.128;5.434;2022-07-21T12:48:36;101925.41;;;20.17;77.88
71716;BME280;59568;52.128;5.434;2022-07-21T12:53:48;101923.41;;;20.14;75.87
71716;BME280;59568;52.128;5.434;2022-07-21T12:56:18;101932.09;;;20.23;76.62
71716;BME280;59568;52.128;5.434;2022-07-21T12:58:47;101925.03;;;20.27;75.46
71716;BME280;59568;52.128;5.434;2022-07-21T13:01:16;101929.56;;;20.27;75.80
71716;BME280;59568;52.128;5.434;2022-07-21T13:03:43;101926.00;;;20.23;75.70
71716;BME280;59568;52.128;5.434;2022-07-21T13:06:10;101925.88;;;20.19;76.68
71716;BME280;59568;52.128;5.434;2022-07-21T13:08:40;101921.09;;;20.12;76.29
71716;BME280;59568;52.128;5.434;2022-07-21T13:11:08;101920.66;;;20.10;77.59
71716;BME280;59568;52.128;5.434;2022-07-21T13:13:36;101922.84;;;20.08;77.33
71716;BME280;59568;52.128;5.434;2022-07-21T13:16:05;101926.44;;;20.04;76.67
71716;BME280;59568;52.128;5.434;2022-07-21T13:18:32;101926.00;;;20.02;78.13
71716;BME280;59568;52.128;5.434;2022-07-21T13:20:59;101923.09;;;19.94;78.39
71716;BME280;59568;52.128;5.434;2022-07-21T13:23:25;101923.41;;;19.93;79.54
71716;BME280;59568;52.128;5.434;2022-07-21T13:25:52;101922.19;;;19.90;77.33
71716;BME280;59568;52.128;5.434;2022-07-21T13:28:36;101921.06;;;19.91;77.35
71716;BME280;59568;52.128;5.434;2022-07-21T13:31:05;101925.88;;;19.98;78.91
71716;BME280;59568;52.128;5.434;2022-07-21T13:33:34;101938.81;;;20.00;78.68
71716;BME280;59568;52.128;5.434;2022-07-21T13:36:05;101934.53;;;20.07;77.85